sensor_id;sensor_type;location;lat;lon;timestamp;P1;P2;P0
53698;PMS7003;68408;53.952;27.612;2023-12-04T00:01:54;16.5;11.6;8.6
53698;PMS7003;68408;53.952;27.612;2023-12-04T00:06:16;17.8;14.1;10.1
53698;PMS7003;68408;53.952;27.612;2023-12-04T00:11:30;18.2;14.4;10
53698;PMS7003;68408;53.952;27.612;2023-12-04T00:16:14;18.3;14.4;10.1
53698;PMS7003;68408;53.952;27.612;2023-12-04T00:21:14;16.1;12.9;9.2
53698;PMS7003;68408;53.952;27.612;2023-12-04T00:26:28;15.4;11.9;8.5
53698;PMS7003;68408;53.952;27.612;2023-12-04T00:31:42;16.1;12.8;9.4
53698;PMS7003;68408;53.952;27.612;2023-12-04T00:36:52;18.1;14.4;10.3
53698;PMS7003;68408;53.952;27.612;2023-12-04T00:41:14;17.7;14.4;10.6
53698;PMS7003;68408;53.952;27.612;2023-12-04T00:46:50;15.2;13.6;9.6
53698;PMS7003;68408;53.952;27.612;2023-12-04T00:51:18;14.6;12.5;9.1
53698;PMS7003;68408;53.952;27.612;2023-12-04T00:56:37;15;12.4;8.8
53698;PMS7003;68408;53.952;27.612;2023-12-04T01:01:32;17.1;13.7;10
53698;PMS7003;68408;53.952;27.612;2023-12-04T01:06:25;17.1;13.6;10
53698;PMS7003;68408;53.952;27.612;2023-12-04T01:11:54;17.3;14;10.1
53698;PMS7003;68408;53.952;27.612;2023-12-04T01:16:36;17.6;14.7;11.2
53698;PMS7003;68408;53.952;27.612;2023-12-04T01:21:54;17.3;13.4;10.2
53698;PMS7003;68408;53.952;27.612;2023-12-04T01:26:54;16.7;12.5;9.3
53698;PMS7003;68408;53.952;27.612;2023-12-04T01:31:18;16.1;13.3;9.3
53698;PMS7003;68408;53.952;27.612;2023-12-04T01:36:22;16;13.1;9.9
53698;PMS7003;68408;53.952;27.612;2023-12-04T01:41:56;13.8;11;8.2
53698;PMS7003;68408;53.952;27.612;2023-12-04T01:46:14;16.3;12.2;8.7
53698;PMS7003;68408;53.952;27.612;2023-12-04T01:51:22;16;11.4;8.4
53698;PMS7003;68408;53.952;27.612;2023-12-04T01:56:14;15.1;12.1;8.9
53698;PMS7003;68408;53.952;27.612;2023-12-04T02:01:14;12.9;10.3;7.7
53698;PMS7003;68408;53.952;27.612;2023-12-04T02:06:22;13.6;11.7;8.6
53698;PMS7003;68408;53.952;27.612;2023-12-04T02:11:44;13.8;10.3;7.7
53698;PMS7003;68408;53.952;27.612;2023-12-04T02:16:56;15.8;11.3;8.3
53698;PMS7003;68408;53.952;27.612;2023-12-04T02:21:30;16.2;12.7;9.8
53698;PMS7003;68408;53.952;27.612;2023-12-04T02:26:16;16.3;13.4;9.8
53698;PMS7003;68408;53.952;27.612;2023-12-04T02:31:16;13.2;11.5;8.6
53698;PMS7003;68408;53.952;27.612;2023-12-04T02:36:36;14.8;13.2;9.6
53698;PMS7003;68408;53.952;27.612;2023-12-04T02:41:18;14.7;11.6;8.1
53698;PMS7003;68408;53.952;27.612;2023-12-04T02:46:14;14.8;11;8
53698;PMS7003;68408;53.952;27.612;2023-12-04T02:51:34;13.3;11.2;8.6
53698;PMS7003;68408;53.952;27.612;2023-12-04T02:56:42;13.5;10.1;7.2
53698;PMS7003;68408;53.952;27.612;2023-12-04T03:01:52;17.1;12.4;9.3
53698;PMS7003;68408;53.952;27.612;2023-12-04T03:06:50;14.9;12.1;8.8
53698;PMS7003;68408;53.952;27.612;2023-12-04T03:11:14;17.4;14.2;10
53698;PMS7003;68408;53.952;27.612;2023-12-04T03:16:56;17.1;14.3;9.9
53698;PMS7003;68408;53.952;27.612;2023-12-04T03:21:24;16.9;13.1;9.4
53698;PMS7003;68408;53.952;27.612;2023-12-04T03:26:52;17.4;14.3;9.9
53698;PMS7003;68408;53.952;27.612;2023-12-04T03:31:14;17.4;14;9.7
53698;PMS7003;68408;53.952;27.612;2023-12-04T03:36:14;16.1;14;9.5
53698;PMS7003;68408;53.952;27.612;2023-12-04T03:41:22;21.1;16.6;12
53698;PMS7003;68408;53.952;27.612;2023-12-04T03:46:16;31.6;27;19.9
53698;PMS7003;68408;53.952;27.612;2023-12-04T03:51:14;23.6;19.9;14
53698;PMS7003;68408;53.952;27.612;2023-12-04T03:56:40;23.7;17.9;13.1
53698;PMS7003;68408;53.952;27.612;2023-12-04T04:01:44;22;17.9;12.9
53698;PMS7003;68408;53.952;27.612;2023-12-04T04:06:56;20.3;16.6;11.6
53698;PMS7003;68408;53.952;27.612;2023-12-04T04:11:56;24.4;18.4;13.7
53698;PMS7003;68408;53.952;27.612;2023-12-04T04:16:44;19.9;16.4;11.7
53698;PMS7003;68408;53.952;27.612;2023-12-04T04:21:56;23;16.6;11.6
53698;PMS7003;68408;53.952;27.612;2023-12-04T04:26:22;20.5;16.1;10.6
53698;PMS7003;68408;53.952;27.612;2023-12-04T04:31:36;21;17.1;11.7
53698;PMS7003;68408;53.952;27.612;2023-12-04T04:36:44;23.5;17.3;12
53698;PMS7003;68408;53.952;27.612;2023-12-04T04:41:54;21.5;17;11.7
53698;PMS7003;68408;53.952;27.612;2023-12-04T04:46:34;20.6;17.2;12
53698;PMS7003;68408;53.952;27.612;2023-12-04T04:51:20;21.9;17.6;12
53698;PMS7003;68408;53.952;27.612;2023-12-04T04:56:56;22.4;18.5;12.4
53698;PMS7003;68408;53.952;27.612;2023-12-04T05:01:34;19.8;17.2;12.4
53698;PMS7003;68408;53.952;27.612;2023-12-04T05:06:40;22.8;18.5;12.4
53698;PMS7003;68408;53.952;27.612;2023-12-04T05:11:14;21.8;17.6;12.1
53698;PMS7003;68408;53.952;27.612;2023-12-04T05:16:54;22;17;12
53698;PMS7003;68408;53.952;27.612;2023-12-04T05:21:20;24;18.5;13.5
53698;PMS7003;68408;53.952;27.612;2023-12-04T05:26:16;23.7;19.8;13.3
53698;PMS7003;68408;53.952;27.612;2023-12-04T05:31:14;26;21.5;14
53698;PMS7003;68408;53.952;27.612;2023-12-04T05:36:54;25.8;21;14.3
53698;PMS7003;68408;53.952;27.612;2023-12-04T05:41:26;24.1;20.6;14.7
53698;PMS7003;68408;53.952;27.612;2023-12-04T05:46:54;25.3;20.1;13.6
53698;PMS7003;68408;53.952;27.612;2023-12-04T05:51:54;27;21.5;14.6
53698;PMS7003;68408;53.952;27.612;2023-12-04T05:56:38;26.5;20.2;13.8
53698;PMS7003;68408;53.952;27.612;2023-12-04T06:01:56;24;19.4;13.8
53698;PMS7003;68408;53.952;27.612;2023-12-04T06:06:36;25.3;19.8;14.6
53698;PMS7003;68408;53.952;27.612;2023-12-04T06:11:24;23.7;19;13.3
53698;PMS7003;68408;53.952;27.612;2023-12-04T06:16:44;24.1;19.9;14
53698;PMS7003;68408;53.952;27.612;2023-12-04T06:21:56;21.3;17;11
53698;PMS7003;68408;53.952;27.612;2023-12-04T06:26:52;26.1;20;13.6
53698;PMS7003;68408;53.952;27.612;2023-12-04T06:31:32;24.7;19.7;13.4
53698;PMS7003;68408;53.952;27.612;2023-12-04T06:36:54;32;25.3;17.7
53698;PMS7003;68408;53.952;27.612;2023-12-04T06:41:18;23.1;18;12.4
53698;PMS7003;68408;53.952;27.612;2023-12-04T06:46:30;20;17.3;12.5
53698;PMS7003;68408;53.952;27.612;2023-12-04T06:51:32;21.9;17.5;13
53698;PMS7003;68408;53.952;27.612;2023-12-04T06:56:18;23.9;19.7;13
53698;PMS7003;68408;53.952;27.612;2023-12-04T07:01:42;22.9;17.6;12.6
53698;PMS7003;68408;53.952;27.612;2023-12-04T07:06:42;24.8;18.9;13
53698;PMS7003;68408;53.952;27.612;2023-12-04T07:11:14;22.1;16.4;12.2
53698;PMS7003;68408;53.952;27.612;2023-12-04T07:16:14;23.4;18;12.7
53698;PMS7003;68408;53.952;27.612;2023-12-04T07:21:52;22.8;17;12.6
53698;PMS7003;68408;53.952;27.612;2023-12-04T07:26:56;23.6;19.9;13.8
53698;PMS7003;68408;53.952;27.612;2023-12-04T07:31:56;25.6;20.2;13.6
53698;PMS7003;68408;53.952;27.612;2023-12-04T07:36:14;22.4;18.3;11.8
53698;PMS7003;68408;53.952;27.612;2023-12-04T07:41:52;23.2;17.8;12.5
53698;PMS7003;68408;53.952;27.612;2023-12-04T07:46:14;20.8;17.6;12.2
53698;PMS7003;68408;53.952;27.612;2023-12-04T07:51:32;21.3;15.7;10.4
53698;PMS7003;68408;53.952;27.612;2023-12-04T07:56:42;24.8;20.6;14.4
53698;PMS7003;68408;53.952;27.612;2023-12-04T08:01:22;21.2;16.5;11.7
53698;PMS7003;68408;53.952;27.612;2023-12-04T08:06:22;21.3;16.8;11.9
53698;PMS7003;68408;53.952;27.612;2023-12-04T08:11:44;19.4;15.3;11
53698;PMS7003;68408;53.952;27.612;2023-12-04T08:16:54;21.2;16.4;11.3
53698;PMS7003;68408;53.952;27.612;2023-12-04T08:21:50;22.3;18.2;12.7
53698;PMS7003;68408;53.952;27.612;2023-12-04T08:26:48;15;12.8;8.8
53698;PMS7003;68408;53.952;27.612;2023-12-04T08:31:14;18.9;14.3;10.4
53698;PMS7003;68408;53.952;27.612;2023-12-04T08:36:14;20.9;16.1;11.3
53698;PMS7003;68408;53.952;27.612;2023-12-04T08:41:14;18.2;15.9;11.3
53698;PMS7003;68408;53.952;27.612;2023-12-04T08:46:20;21.9;16.8;12
53698;PMS7003;68408;53.952;27.612;2023-12-04T08:51:18;17.6;14.6;10.8
53698;PMS7003;68408;53.952;27.612;2023-12-04T08:56:14;17.9;13.8;9.6
53698;PMS7003;68408;53.952;27.612;2023-12-04T09:01:22;20.1;14.6;9.9
53698;PMS7003;68408;53.952;27.612;2023-12-04T09:06:54;17.3;13.8;9.4
53698;PMS7003;68408;53.952;27.612;2023-12-04T09:11:52;16.7;12.6;9.3
53698;PMS7003;68408;53.952;27.612;2023-12-04T09:16:32;16.3;12.8;7.8
53698;PMS7003;68408;53.952;27.612;2023-12-04T09:21:50;19.1;14.4;10.2
53698;PMS7003;68408;53.952;27.612;2023-12-04T09:26:16;17.7;13.4;10.1
53698;PMS7003;68408;53.952;27.612;2023-12-04T09:31:16;16.6;13.2;8.9
53698;PMS7003;68408;53.952;27.612;2023-12-04T09:36:54;18.5;14.4;10.2
53698;PMS7003;68408;53.952;27.612;2023-12-04T09:41:22;18;14.5;10.3
53698;PMS7003;68408;53.952;27.612;2023-12-04T09:46:54;15;11.8;8.2
53698;PMS7003;68408;53.952;27.612;2023-12-04T09:51:14;18.9;14.3;10.3
53698;PMS7003;68408;53.952;27.612;2023-12-04T09:56:54;18.4;13.9;9.5
53698;PMS7003;68408;53.952;27.612;2023-12-04T10:01:54;18;14.2;10.2
53698;PMS7003;68408;53.952;27.612;2023-12-04T10:06:50;17.2;13.6;9.4
53698;PMS7003;68408;53.952;27.612;2023-12-04T10:11:20;17.2;13;8.9
53698;PMS7003;68408;53.952;27.612;2023-12-04T10:16:14;15.9;13.8;9.6
53698;PMS7003;68408;53.952;27.612;2023-12-04T10:21:22;18.7;15.7;10.9
53698;PMS7003;68408;53.952;27.612;2023-12-04T10:26:14;17.6;13.1;8.6
53698;PMS7003;68408;53.952;27.612;2023-12-04T10:31:14;17.1;13.6;9.9
53698;PMS7003;68408;53.952;27.612;2023-12-04T10:36:32;15;11.5;8.3
53698;PMS7003;68408;53.952;27.612;2023-12-04T10:41:58;14.5;11.7;8.2
53698;PMS7003;68408;53.952;27.612;2023-12-04T10:46:54;15.7;12.2;8
53698;PMS7003;68408;53.952;27.612;2023-12-04T10:51:52;15.6;12.9;9.1
53698;PMS7003;68408;53.952;27.612;2023-12-04T10:56:25;16.7;12.7;9.5
53698;PMS7003;68408;53.952;27.612;2023-12-04T11:01:52;14;10.3;7.1
53698;PMS7003;68408;53.952;27.612;2023-12-04T11:06:26;14.3;11.7;8.6
53698;PMS7003;68408;53.952;27.612;2023-12-04T11:11:26;14;10.5;7
53698;PMS7003;68408;53.952;27.612;2023-12-04T11:16:45;15.2;12.4;9
53698;PMS7003;68408;53.952;27.612;2023-12-04T11:21:24;20.5;16.3;12
53698;PMS7003;68408;53.952;27.612;2023-12-04T11:26:14;15.8;12.5;9
53698;PMS7003;68408;53.952;27.612;2023-12-04T11:31:40;12.8;9.6;6.8
53698;PMS7003;68408;53.952;27.612;2023-12-04T11:36:54;14;11.1;8.2
53698;PMS7003;68408;53.952;27.612;2023-12-04T11:41:54;16;12;8.2
53698;PMS7003;68408;53.952;27.612;2023-12-04T11:46:54;11.1;8.9;6.7
53698;PMS7003;68408;53.952;27.612;2023-12-04T11:51:45;12.7;9.6;6.8
53698;PMS7003;68408;53.952;27.612;2023-12-04T11:56:16;12.2;8.6;6.9
53698;PMS7003;68408;53.952;27.612;2023-12-04T12:01:16;12.7;9.5;7.1
53698;PMS7003;68408;53.952;27.612;2023-12-04T12:06:18;12.7;10.4;7.4
53698;PMS7003;68408;53.952;27.612;2023-12-04T12:11:14;14.8;11;7.4
53698;PMS7003;68408;53.952;27.612;2023-12-04T12:16:36;12.9;8.7;6.2
53698;PMS7003;68408;53.952;27.612;2023-12-04T12:21:24;13;10.3;7.7
53698;PMS7003;68408;53.952;27.612;2023-12-04T12:26:42;12.5;10.3;7.9
53698;PMS7003;68408;53.952;27.612;2023-12-04T12:31:54;12.9;10;7.2
53698;PMS7003;68408;53.952;27.612;2023-12-04T12:36:40;11.6;8.7;6.9
53698;PMS7003;68408;53.952;27.612;2023-12-04T12:41:50;10.1;7.9;6.1
53698;PMS7003;68408;53.952;27.612;2023-12-04T12:46:17;10.1;7;5.4
53698;PMS7003;68408;53.952;27.612;2023-12-04T12:51:36;8.6;6.1;4.9
53698;PMS7003;68408;53.952;27.612;2023-12-04T12:56:26;7.1;5.2;4.2
53698;PMS7003;68408;53.952;27.612;2023-12-04T13:01:14;6.7;5.4;4.1
53698;PMS7003;68408;53.952;27.612;2023-12-04T13:06:54;8.8;6.7;5
53698;PMS7003;68408;53.952;27.612;2023-12-04T13:11:26;9.6;7;5.2
53698;PMS7003;68408;53.952;27.612;2023-12-04T13:16:56;8.7;6.1;4.5
53698;PMS7003;68408;53.952;27.612;2023-12-04T13:21:56;10.2;7.7;6.1
53698;PMS7003;68408;53.952;27.612;2023-12-04T13:26:32;10;7.4;5.9
53698;PMS7003;68408;53.952;27.612;2023-12-04T13:31:33;8.4;6.8;5.5
53698;PMS7003;68408;53.952;27.612;2023-12-04T13:36:56;9.2;6.2;4.8
53698;PMS7003;68408;53.952;27.612;2023-12-04T13:41:28;9;6.6;5.4
53698;PMS7003;68408;53.952;27.612;2023-12-04T13:46:14;7.1;6.2;4.8
53698;PMS7003;68408;53.952;27.612;2023-12-04T13:51:32;8.5;6.5;5.3
53698;PMS7003;68408;53.952;27.612;2023-12-04T13:56:36;8.5;6.4;5.3
53698;PMS7003;68408;53.952;27.612;2023-12-04T14:01:14;9.2;7.8;5.8
53698;PMS7003;68408;53.952;27.612;2023-12-04T14:06:44;9.6;7.7;5.5
53698;PMS7003;68408;53.952;27.612;2023-12-04T14:11:56;8.3;6.4;5.1
53698;PMS7003;68408;53.952;27.612;2023-12-04T14:16:50;10.3;7;5.5
53698;PMS7003;68408;53.952;27.612;2023-12-04T14:21:34;10.5;7.7;5.7
53698;PMS7003;68408;53.952;27.612;2023-12-04T14:26:44;10.7;9;7
53698;PMS7003;68408;53.952;27.612;2023-12-04T14:31:24;8.9;7.4;5.7
53698;PMS7003;68408;53.952;27.612;2023-12-04T14:36:16;8.9;6.7;5.1
53698;PMS7003;68408;53.952;27.612;2023-12-04T14:41:34;12.9;9.7;7.3
53698;PMS7003;68408;53.952;27.612;2023-12-04T14:46:16;11.4;9;7.3
53698;PMS7003;68408;53.952;27.612;2023-12-04T14:51:16;9.6;7.1;5.4
53698;PMS7003;68408;53.952;27.612;2023-12-04T14:56:40;11.1;8.8;6.8
53698;PMS7003;68408;53.952;27.612;2023-12-04T15:01:58;11.9;8.2;6.1
53698;PMS7003;68408;53.952;27.612;2023-12-04T15:06:56;10.6;8.5;6.3
53698;PMS7003;68408;53.952;27.612;2023-12-04T15:11:34;16.7;13.5;9.8
53698;PMS7003;68408;53.952;27.612;2023-12-04T15:16:58;10.4;7.3;5.4
53698;PMS7003;68408;53.952;27.612;2023-12-04T15:21:14;11.4;9.3;7.4
53698;PMS7003;68408;53.952;27.612;2023-12-04T15:26:54;9.5;7.5;5.8
53698;PMS7003;68408;53.952;27.612;2023-12-04T15:31:40;9.8;7.4;6
53698;PMS7003;68408;53.952;27.612;2023-12-04T15:36:34;10.6;7.9;5.7
53698;PMS7003;68408;53.952;27.612;2023-12-04T15:41:22;9.1;7.6;6.2
53698;PMS7003;68408;53.952;27.612;2023-12-04T15:46:44;9.4;7.2;5.6
53698;PMS7003;68408;53.952;27.612;2023-12-04T15:51:58;11.2;9;6.5
53698;PMS7003;68408;53.952;27.612;2023-12-04T15:56:54;11.5;9.4;7.3
53698;PMS7003;68408;53.952;27.612;2023-12-04T16:01:16;10.8;8.9;6.7
53698;PMS7003;68408;53.952;27.612;2023-12-04T16:06:34;15.4;11.4;8.5
53698;PMS7003;68408;53.952;27.612;2023-12-04T16:11:38;11.5;9.2;6.5
53698;PMS7003;68408;53.952;27.612;2023-12-04T16:16:42;11.3;9.3;7.2
53698;PMS7003;68408;53.952;27.612;2023-12-04T16:21:32;12.5;8.7;6.7
53698;PMS7003;68408;53.952;27.612;2023-12-04T16:26:36;11.7;8.8;6.9
53698;PMS7003;68408;53.952;27.612;2023-12-04T16:31:44;11.8;9.3;7.2
53698;PMS7003;68408;53.952;27.612;2023-12-04T16:36:58;12.6;8.7;6.5
53698;PMS7003;68408;53.952;27.612;2023-12-04T16:41:54;10;8.7;6.8
53698;PMS7003;68408;53.952;27.612;2023-12-04T16:46:34;9;6.6;4.9
53698;PMS7003;68408;53.952;27.612;2023-12-04T16:51:56;11.1;8.8;6.7
53698;PMS7003;68408;53.952;27.612;2023-12-04T16:56:34;11.6;9;6.7
53698;PMS7003;68408;53.952;27.612;2023-12-04T17:01:52;12.6;9.6;7
53698;PMS7003;68408;53.952;27.612;2023-12-04T17:06:56;12.3;9.2;6.4
53698;PMS7003;68408;53.952;27.612;2023-12-04T17:11:14;13.6;11.2;8.8
53698;PMS7003;68408;53.952;27.612;2023-12-04T17:16:14;11.4;8.8;6.8
53698;PMS7003;68408;53.952;27.612;2023-12-04T17:21:16;11.4;7.8;6.2
53698;PMS7003;68408;53.952;27.612;2023-12-04T17:26:40;11.4;8.5;6.5
53698;PMS7003;68408;53.952;27.612;2023-12-04T17:31:15;9.5;6.9;5.2
53698;PMS7003;68408;53.952;27.612;2023-12-04T17:36:14;12.1;9.5;7.1
53698;PMS7003;68408;53.952;27.612;2023-12-04T17:41:58;11.6;9.7;7.3
53698;PMS7003;68408;53.952;27.612;2023-12-04T17:46:54;12.1;9;6.8
53698;PMS7003;68408;53.952;27.612;2023-12-04T17:51:14;12;9.4;7.4
53698;PMS7003;68408;53.952;27.612;2023-12-04T17:56:42;8.9;7;5.3
53698;PMS7003;68408;53.952;27.612;2023-12-04T18:01:14;11.2;9;7
53698;PMS7003;68408;53.952;27.612;2023-12-04T18:06:36;11.6;9.1;6.9
53698;PMS7003;68408;53.952;27.612;2023-12-04T18:11:44;10.5;8.7;6.5
53698;PMS7003;68408;53.952;27.612;2023-12-04T18:16:56;9.7;7;5.8
53698;PMS7003;68408;53.952;27.612;2023-12-04T18:21:52;11.7;8.7;6.5
53698;PMS7003;68408;53.952;27.612;2023-12-04T18:26:14;11;9.3;7.3
53698;PMS7003;68408;53.952;27.612;2023-12-04T18:31:58;11.5;9.4;7.1
53698;PMS7003;68408;53.952;27.612;2023-12-04T18:36:57;11.7;9.2;7.1
53698;PMS7003;68408;53.952;27.612;2023-12-04T18:41:58;12.8;10;7.5
53698;PMS7003;68408;53.952;27.612;2023-12-04T18:46:22;12;9.1;7
53698;PMS7003;68408;53.952;27.612;2023-12-04T18:51:14;14.8;10.7;7.9
53698;PMS7003;68408;53.952;27.612;2023-12-04T18:56:56;10.5;9.3;7.1
53698;PMS7003;68408;53.952;27.612;2023-12-04T19:01:14;14.3;11.4;8.6
53698;PMS7003;68408;53.952;27.612;2023-12-04T19:06:32;12.1;9.1;7
53698;PMS7003;68408;53.952;27.612;2023-12-04T19:11:14;11.1;9.4;7
53698;PMS7003;68408;53.952;27.612;2023-12-04T19:16:14;12.4;9.5;7.2
53698;PMS7003;68408;53.952;27.612;2023-12-04T19:21:56;12.1;9.2;7.2
53698;PMS7003;68408;53.952;27.612;2023-12-04T19:26:54;10.5;7.8;6.1
53698;PMS7003;68408;53.952;27.612;2023-12-04T19:31:24;10.2;8.3;6.5
53698;PMS7003;68408;53.952;27.612;2023-12-04T19:36:54;11.5;8.5;6
53698;PMS7003;68408;53.952;27.612;2023-12-04T19:41:14;12.8;9.4;7.1
53698;PMS7003;68408;53.952;27.612;2023-12-04T19:46:39;12.7;10.3;8.1
53698;PMS7003;68408;53.952;27.612;2023-12-04T19:51:16;13.2;9.7;6.9
53698;PMS7003;68408;53.952;27.612;2023-12-04T19:56:54;10.9;8.1;5.6
53698;PMS7003;68408;53.952;27.612;2023-12-04T20:01:50;11.7;9.3;6.9
53698;PMS7003;68408;53.952;27.612;2023-12-04T20:06:24;10.1;8.8;6.7
53698;PMS7003;68408;53.952;27.612;2023-12-04T20:11:56;13.2;9.4;7.5
53698;PMS7003;68408;53.952;27.612;2023-12-04T20:16:36;13;10.5;7.8
53698;PMS7003;68408;53.952;27.612;2023-12-04T20:21:52;13.1;11.3;8.1
53698;PMS7003;68408;53.952;27.612;2023-12-04T20:26:26;15.7;11.9;9.1
53698;PMS7003;68408;53.952;27.612;2023-12-04T20:31:14;12;10.2;7.2
53698;PMS7003;68408;53.952;27.612;2023-12-04T20:36:56;13.2;10.2;7.2
53698;PMS7003;68408;53.952;27.612;2023-12-04T20:41:22;12.2;9.3;6.6
53698;PMS7003;68408;53.952;27.612;2023-12-04T20:46:14;14.8;10.8;7.9
53698;PMS7003;68408;53.952;27.612;2023-12-04T20:51:18;14.1;11.7;8.6
53698;PMS7003;68408;53.952;27.612;2023-12-04T20:56:52;14.8;11.6;8.6
53698;PMS7003;68408;53.952;27.612;2023-12-04T21:01:56;14.6;11.5;8.6
53698;PMS7003;68408;53.952;27.612;2023-12-04T21:06:56;14.2;9.8;6.8
53698;PMS7003;68408;53.952;27.612;2023-12-04T21:11:40;13.3;10;6.7
53698;PMS7003;68408;53.952;27.612;2023-12-04T21:16:52;14.1;10.8;8.1
53698;PMS7003;68408;53.952;27.612;2023-12-04T21:21:24;16.4;12.4;9
53698;PMS7003;68408;53.952;27.612;2023-12-04T21:26:34;15.2;12.1;8.8
53698;PMS7003;68408;53.952;27.612;2023-12-04T21:31:24;15.4;12.3;9.3
53698;PMS7003;68408;53.952;27.612;2023-12-04T21:36:24;13.3;11;8.3
53698;PMS7003;68408;53.952;27.612;2023-12-04T21:41:14;14.8;11.5;8
53698;PMS7003;68408;53.952;27.612;2023-12-04T21:46:24;15.5;12.6;9.4
53698;PMS7003;68408;53.952;27.612;2023-12-04T21:51:56;26.4;21;13.7
53698;PMS7003;68408;53.952;27.612;2023-12-04T21:56:56;14.8;12;8.6
53698;PMS7003;68408;53.952;27.612;2023-12-04T22:01:52;13.3;10.1;6.5
53698;PMS7003;68408;53.952;27.612;2023-12-04T22:06:14;16.1;11.5;8.2
53698;PMS7003;68408;53.952;27.612;2023-12-04T22:11:18;19.6;13.7;9.1
53698;PMS7003;68408;53.952;27.612;2023-12-04T22:16:16;17.1;13.4;9.3
53698;PMS7003;68408;53.952;27.612;2023-12-04T22:21:56;15.7;13.2;9
53698;PMS7003;68408;53.952;27.612;2023-12-04T22:26:44;18.2;13.5;10.1
53698;PMS7003;68408;53.952;27.612;2023-12-04T22:31:14;16.7;14.3;10.1
53698;PMS7003;68408;53.952;27.612;2023-12-04T22:36:52;16.7;12.9;9.3
53698;PMS7003;68408;53.952;27.612;2023-12-04T22:41:56;16.1;12.9;9.1
53698;PMS7003;68408;53.952;27.612;2023-12-04T22:46:56;15.1;11.7;7.8
53698;PMS7003;68408;53.952;27.612;2023-12-04T22:51:26;20.1;14.3;9.9
53698;PMS7003;68408;53.952;27.612;2023-12-04T22:56:52;19.5;15.2;10.5
53698;PMS7003;68408;53.952;27.612;2023-12-04T23:01:16;18.9;14;9.4
53698;PMS7003;68408;53.952;27.612;2023-12-04T23:06:56;19.9;14.7;9.9
53698;PMS7003;68408;53.952;27.612;2023-12-04T23:11:44;17.5;13.4;8.5
53698;PMS7003;68408;53.952;27.612;2023-12-04T23:16:44;18;14.5;10.2
53698;PMS7003;68408;53.952;27.612;2023-12-04T23:21:42;18.3;14.2;10.2
53698;PMS7003;68408;53.952;27.612;2023-12-04T23:26:24;21.3;16.5;11.4
53698;PMS7003;68408;53.952;27.612;2023-12-04T23:31:56;17.8;15.3;10.4
53698;PMS7003;68408;53.952;27.612;2023-12-04T23:36:56;19.9;15.5;11.2
53698;PMS7003;68408;53.952;27.612;2023-12-04T23:41:16;19.2;14.8;10
53698;PMS7003;68408;53.952;27.612;2023-12-04T23:46:14;19.2;15.1;11.3
53698;PMS7003;68408;53.952;27.612;2023-12-04T23:51:22;21.2;16.7;11.3
53698;PMS7003;68408;53.952;27.612;2023-12-04T23:56:22;20;15.9;11.7
